sensor_id;sensor_type;location;lat;lon;timestamp;temperature;humidity
13436;DHT22;6790;49.520;8.504;2022-09-02T00:01:49;14.60;99.90
13436;DHT22;6790;49.520;8.504;2022-09-02T00:04:21;14.60;99.90
13436;DHT22;6790;49.520;8.504;2022-09-02T00:06:51;14.50;99.90
13436;DHT22;6790;49.520;8.504;2022-09-02T00:09:22;14.50;99.90
13436;DHT22;6790;49.520;8.504;2022-09-02T00:11:51;14.40;99.90
13436;DHT22;6790;49.520;8.504;2022-09-02T00:14:22;14.50;99.90
13436;DHT22;6790;49.520;8.504;2022-09-02T00:16:54;14.50;99.90
13436;DHT22;6790;49.520;8.504;2022-09-02T00:19:22;14.50;99.90
13436;DHT22;6790;49.520;8.504;2022-09-02T00:21:51;14.50;99.90
13436;DHT22;6790;49.520;8.504;2022-09-02T00:24:18;14.40;99.90
13436;DHT22;6790;49.520;8.504;2022-09-02T00:26:45;14.40;99.90
13436;DHT22;6790;49.520;8.504;2022-09-02T00:29:11;14.40;99.90
13436;DHT22;6790;49.520;8.504;2022-09-02T00:31:39;14.40;99.90
13436;DHT22;6790;49.520;8.504;2022-09-02T00:34:09;14.20;99.90
13436;DHT22;6790;49.520;8.504;2022-09-02T00:36:35;14.20;99.90
13436;DHT22;6790;49.520;8.504;2022-09-02T00:39:02;14.20;99.90
13436;DHT22;6790;49.520;8.504;2022-09-02T00:41:29;14.30;99.90
13436;DHT22;6790;49.520;8.504;2022-09-02T00:44:03;14.30;99.90
13436;DHT22;6790;49.520;8.504;2022-09-02T00:46:32;14.30;99.90
13436;DHT22;6790;49.520;8.504;2022-09-02T00:54:38;14.30;99.90
13436;DHT22;6790;49.520;8.504;2022-09-02T00:57:13;14.30;99.90
13436;DHT22;6790;49.520;8.504;2022-09-02T01:00:19;14.30;99.90
13436;DHT22;6790;49.520;8.504;2022-09-02T01:02:53;14.10;99.90
13436;DHT22;6790;49.520;8.504;2022-09-02T01:05:22;14.20;99.90
13436;DHT22;6790;49.520;8.504;2022-09-02T01:07:49;14.10;99.90
13436;DHT22;6790;49.520;8.504;2022-09-02T01:10:19;14.10;99.90
13436;DHT22;6790;49.520;8.504;2022-09-02T01:12:46;14.00;99.90
13436;DHT22;6790;49.520;8.504;2022-09-02T01:15:13;14.00;99.90
13436;DHT22;6790;49.520;8.504;2022-09-02T01:17:47;13.90;99.90
13436;DHT22;6790;49.520;8.504;2022-09-02T01:20:17;13.90;99.90
13436;DHT22;6790;49.520;8.504;2022-09-02T01:22:48;14.00;99.90
13436;DHT22;6790;49.520;8.504;2022-09-02T01:25:18;13.90;99.90
13436;DHT22;6790;49.520;8.504;2022-09-02T01:27:45;13.90;99.90
13436;DHT22;6790;49.520;8.504;2022-09-02T01:30:17;14.00;99.90
13436;DHT22;6790;49.520;8.504;2022-09-02T01:32:47;14.00;99.90
13436;DHT22;6790;49.520;8.504;2022-09-02T01:35:13;14.00;99.90
13436;DHT22;6790;49.520;8.504;2022-09-02T01:37:39;13.90;99.90
13436;DHT22;6790;49.520;8.504;2022-09-02T01:40:08;13.90;99.90
13436;DHT22;6790;49.520;8.504;2022-09-02T01:42:36;13.80;99.90
13436;DHT22;6790;49.520;8.504;2022-09-02T01:45:04;13.70;99.90
13436;DHT22;6790;49.520;8.504;2022-09-02T01:47:30;13.70;99.90
13436;DHT22;6790;49.520;8.504;2022-09-02T01:49:57;13.70;99.90
13436;DHT22;6790;49.520;8.504;2022-09-02T01:52:24;13.60;99.90
13436;DHT22;6790;49.520;8.504;2022-09-02T01:54:51;13.60;99.90
13436;DHT22;6790;49.520;8.504;2022-09-02T01:57:18;13.50;99.90
13436;DHT22;6790;49.520;8.504;2022-09-02T01:59:44;13.60;99.90
13436;DHT22;6790;49.520;8.504;2022-09-02T02:02:11;13.60;99.90
13436;DHT22;6790;49.520;8.504;2022-09-02T02:04:37;13.70;99.90
13436;DHT22;6790;49.520;8.504;2022-09-02T02:07:04;13.60;99.90
13436;DHT22;6790;49.520;8.504;2022-09-02T02:09:30;13.60;99.90
13436;DHT22;6790;49.520;8.504;2022-09-02T02:11:56;13.60;99.90
13436;DHT22;6790;49.520;8.504;2022-09-02T02:14:22;13.50;99.90
13436;DHT22;6790;49.520;8.504;2022-09-02T02:16:48;13.50;99.90
13436;DHT22;6790;49.520;8.504;2022-09-02T02:19:14;13.50;99.90
13436;DHT22;6790;49.520;8.504;2022-09-02T02:21:40;13.40;99.90
13436;DHT22;6790;49.520;8.504;2022-09-02T02:24:07;13.40;99.90
13436;DHT22;6790;49.520;8.504;2022-09-02T02:26:34;13.40;99.90
13436;DHT22;6790;49.520;8.504;2022-09-02T02:29:00;13.30;99.90
13436;DHT22;6790;49.520;8.504;2022-09-02T02:31:26;13.30;99.90
13436;DHT22;6790;49.520;8.504;2022-09-02T02:33:52;13.20;99.90
13436;DHT22;6790;49.520;8.504;2022-09-02T02:36:18;13.30;99.90
13436;DHT22;6790;49.520;8.504;2022-09-02T02:38:44;13.20;99.90
13436;DHT22;6790;49.520;8.504;2022-09-02T02:41:12;13.20;99.90
13436;DHT22;6790;49.520;8.504;2022-09-02T02:43:38;13.30;99.90
13436;DHT22;6790;49.520;8.504;2022-09-02T02:46:05;13.20;99.90
13436;DHT22;6790;49.520;8.504;2022-09-02T02:48:32;13.20;99.90
13436;DHT22;6790;49.520;8.504;2022-09-02T02:50:59;13.20;99.90
13436;DHT22;6790;49.520;8.504;2022-09-02T02:53:25;13.10;99.90
13436;DHT22;6790;49.520;8.504;2022-09-02T02:55:54;13.10;99.90
13436;DHT22;6790;49.520;8.504;2022-09-02T02:58:20;13.10;99.90
13436;DHT22;6790;49.520;8.504;2022-09-02T03:00:46;13.10;99.90
13436;DHT22;6790;49.520;8.504;2022-09-02T03:03:13;13.00;99.90
13436;DHT22;6790;49.520;8.504;2022-09-02T03:05:44;13.00;99.90
13436;DHT22;6790;49.520;8.504;2022-09-02T03:08:11;12.90;99.90
13436;DHT22;6790;49.520;8.504;2022-09-02T03:10:39;12.90;99.90
13436;DHT22;6790;49.520;8.504;2022-09-02T03:13:07;12.80;99.90
13436;DHT22;6790;49.520;8.504;2022-09-02T03:15:35;12.70;99.90
13436;DHT22;6790;49.520;8.504;2022-09-02T03:18:01;12.80;99.90
13436;DHT22;6790;49.520;8.504;2022-09-02T03:20:27;12.80;99.90
13436;DHT22;6790;49.520;8.504;2022-09-02T03:22:56;12.70;99.90
13436;DHT22;6790;49.520;8.504;2022-09-02T03:25:24;12.60;99.90
13436;DHT22;6790;49.520;8.504;2022-09-02T03:27:52;12.60;99.90
13436;DHT22;6790;49.520;8.504;2022-09-02T03:30:25;12.60;99.90
13436;DHT22;6790;49.520;8.504;2022-09-02T03:32:53;12.60;99.90
13436;DHT22;6790;49.520;8.504;2022-09-02T03:35:21;12.50;99.90
13436;DHT22;6790;49.520;8.504;2022-09-02T03:37:48;12.50;99.90
13436;DHT22;6790;49.520;8.504;2022-09-02T03:40:18;12.50;99.90
13436;DHT22;6790;49.520;8.504;2022-09-02T03:42:47;12.50;99.90
13436;DHT22;6790;49.520;8.504;2022-09-02T03:45:14;12.50;99.90
13436;DHT22;6790;49.520;8.504;2022-09-02T03:47:41;12.60;99.90
13436;DHT22;6790;49.520;8.504;2022-09-02T03:50:22;12.50;99.90
13436;DHT22;6790;49.520;8.504;2022-09-02T03:52:50;12.40;99.90
13436;DHT22;6790;49.520;8.504;2022-09-02T03:55:17;12.50;99.90
13436;DHT22;6790;49.520;8.504;2022-09-02T03:57:43;12.50;99.90
13436;DHT22;6790;49.520;8.504;2022-09-02T04:00:11;12.50;99.90
13436;DHT22;6790;49.520;8.504;2022-09-02T04:02:38;12.50;99.90
13436;DHT22;6790;49.520;8.504;2022-09-02T04:05:05;12.40;99.90
13436;DHT22;6790;49.520;8.504;2022-09-02T04:07:31;12.40;99.90
13436;DHT22;6790;49.520;8.504;2022-09-02T04:09:57;12.40;99.90
13436;DHT22;6790;49.520;8.504;2022-09-02T04:12:23;12.40;99.90
13436;DHT22;6790;49.520;8.504;2022-09-02T04:14:49;12.30;99.90
13436;DHT22;6790;49.520;8.504;2022-09-02T04:17:14;12.30;99.90
13436;DHT22;6790;49.520;8.504;2022-09-02T04:19:40;12.30;99.90
13436;DHT22;6790;49.520;8.504;2022-09-02T04:22:06;12.40;99.90
13436;DHT22;6790;49.520;8.504;2022-09-02T04:24:33;12.30;99.90
13436;DHT22;6790;49.520;8.504;2022-09-02T04:26:59;12.30;99.90
13436;DHT22;6790;49.520;8.504;2022-09-02T04:29:25;12.30;99.90
13436;DHT22;6790;49.520;8.504;2022-09-02T04:31:51;12.30;99.90
13436;DHT22;6790;49.520;8.504;2022-09-02T04:34:17;12.30;99.90
13436;DHT22;6790;49.520;8.504;2022-09-02T04:36:43;12.20;99.90
13436;DHT22;6790;49.520;8.504;2022-09-02T04:39:09;12.20;99.90
13436;DHT22;6790;49.520;8.504;2022-09-02T04:41:35;12.20;99.90
13436;DHT22;6790;49.520;8.504;2022-09-02T04:44:02;12.20;99.90
13436;DHT22;6790;49.520;8.504;2022-09-02T04:46:28;12.10;99.90
13436;DHT22;6790;49.520;8.504;2022-09-02T04:48:54;12.20;99.90
13436;DHT22;6790;49.520;8.504;2022-09-02T04:51:23;12.20;99.90
13436;DHT22;6790;49.520;8.504;2022-09-02T04:53:52;12.10;99.90
13436;DHT22;6790;49.520;8.504;2022-09-02T04:56:21;12.20;99.90
13436;DHT22;6790;49.520;8.504;2022-09-02T04:58:49;12.10;99.90
13436;DHT22;6790;49.520;8.504;2022-09-02T05:01:42;12.10;99.90
13436;DHT22;6790;49.520;8.504;2022-09-02T05:04:08;12.10;99.90
13436;DHT22;6790;49.520;8.504;2022-09-02T05:06:34;12.20;99.90
13436;DHT22;6790;49.520;8.504;2022-09-02T05:09:01;12.20;99.90
13436;DHT22;6790;49.520;8.504;2022-09-02T05:11:29;12.20;99.90
13436;DHT22;6790;49.520;8.504;2022-09-02T05:14:00;12.20;99.90
13436;DHT22;6790;49.520;8.504;2022-09-02T05:16:31;12.40;99.90
13436;DHT22;6790;49.520;8.504;2022-09-02T05:19:02;12.40;99.90
13436;DHT22;6790;49.520;8.504;2022-09-02T05:21:29;12.40;99.90
13436;DHT22;6790;49.520;8.504;2022-09-02T05:23:56;12.40;99.90
13436;DHT22;6790;49.520;8.504;2022-09-02T05:26:23;12.40;99.90
13436;DHT22;6790;49.520;8.504;2022-09-02T05:28:49;12.40;99.90
13436;DHT22;6790;49.520;8.504;2022-09-02T05:31:17;12.50;99.90
13436;DHT22;6790;49.520;8.504;2022-09-02T05:33:44;12.50;99.90
13436;DHT22;6790;49.520;8.504;2022-09-02T05:36:19;12.60;99.90
13436;DHT22;6790;49.520;8.504;2022-09-02T05:38:46;12.60;99.90
13436;DHT22;6790;49.520;8.504;2022-09-02T05:41:15;12.70;99.90
13436;DHT22;6790;49.520;8.504;2022-09-02T05:43:43;12.70;99.90
13436;DHT22;6790;49.520;8.504;2022-09-02T05:46:12;12.70;99.90
13436;DHT22;6790;49.520;8.504;2022-09-02T05:48:42;12.80;99.90
13436;DHT22;6790;49.520;8.504;2022-09-02T05:51:27;12.90;99.90
13436;DHT22;6790;49.520;8.504;2022-09-02T05:53:55;12.90;99.90
13436;DHT22;6790;49.520;8.504;2022-09-02T05:56:22;13.00;99.90
13436;DHT22;6790;49.520;8.504;2022-09-02T05:58:48;13.00;99.90
13436;DHT22;6790;49.520;8.504;2022-09-02T06:01:17;13.10;99.90
13436;DHT22;6790;49.520;8.504;2022-09-02T06:03:44;13.20;99.90
13436;DHT22;6790;49.520;8.504;2022-09-02T06:06:11;13.30;99.90
13436;DHT22;6790;49.520;8.504;2022-09-02T06:08:37;13.30;99.90
13436;DHT22;6790;49.520;8.504;2022-09-02T06:11:05;13.40;99.90
13436;DHT22;6790;49.520;8.504;2022-09-02T06:13:38;13.50;99.90
13436;DHT22;6790;49.520;8.504;2022-09-02T06:16:06;13.60;99.90
13436;DHT22;6790;49.520;8.504;2022-09-02T06:18:34;13.70;99.90
13436;DHT22;6790;49.520;8.504;2022-09-02T06:21:02;13.80;99.90
13436;DHT22;6790;49.520;8.504;2022-09-02T06:23:29;13.90;99.90
13436;DHT22;6790;49.520;8.504;2022-09-02T06:25:55;14.00;99.90
13436;DHT22;6790;49.520;8.504;2022-09-02T06:28:21;14.10;99.90
13436;DHT22;6790;49.520;8.504;2022-09-02T06:30:47;14.20;99.90
13436;DHT22;6790;49.520;8.504;2022-09-02T06:33:13;14.30;99.90
13436;DHT22;6790;49.520;8.504;2022-09-02T06:35:41;14.40;99.90
13436;DHT22;6790;49.520;8.504;2022-09-02T06:38:09;14.40;99.90
13436;DHT22;6790;49.520;8.504;2022-09-02T06:40:36;14.60;99.90
13436;DHT22;6790;49.520;8.504;2022-09-02T06:43:02;14.60;99.90
13436;DHT22;6790;49.520;8.504;2022-09-02T06:45:28;14.80;99.90
13436;DHT22;6790;49.520;8.504;2022-09-02T06:47:55;15.00;99.90
13436;DHT22;6790;49.520;8.504;2022-09-02T06:50:21;15.20;99.90
13436;DHT22;6790;49.520;8.504;2022-09-02T06:52:47;15.40;99.90
13436;DHT22;6790;49.520;8.504;2022-09-02T06:55:13;15.60;99.90
13436;DHT22;6790;49.520;8.504;2022-09-02T06:57:40;16.40;99.90
13436;DHT22;6790;49.520;8.504;2022-09-02T07:00:08;16.90;99.90
13436;DHT22;6790;49.520;8.504;2022-09-02T07:02:36;16.90;99.90
13436;DHT22;6790;49.520;8.504;2022-09-02T07:05:02;17.00;99.90
13436;DHT22;6790;49.520;8.504;2022-09-02T07:07:36;17.20;99.90
13436;DHT22;6790;49.520;8.504;2022-09-02T07:10:05;17.60;99.90
13436;DHT22;6790;49.520;8.504;2022-09-02T07:12:34;17.80;99.90
13436;DHT22;6790;49.520;8.504;2022-09-02T07:15:01;17.80;99.90
13436;DHT22;6790;49.520;8.504;2022-09-02T07:17:27;17.90;99.90
13436;DHT22;6790;49.520;8.504;2022-09-02T07:19:53;17.90;99.90
13436;DHT22;6790;49.520;8.504;2022-09-02T07:22:21;17.90;99.90
13436;DHT22;6790;49.520;8.504;2022-09-02T07:24:47;17.80;99.90
13436;DHT22;6790;49.520;8.504;2022-09-02T07:27:13;18.00;99.90
13436;DHT22;6790;49.520;8.504;2022-09-02T07:29:39;18.20;99.90
13436;DHT22;6790;49.520;8.504;2022-09-02T07:32:08;18.40;98.90
13436;DHT22;6790;49.520;8.504;2022-09-02T07:34:34;18.50;98.00
13436;DHT22;6790;49.520;8.504;2022-09-02T07:37:00;18.60;98.60
13436;DHT22;6790;49.520;8.504;2022-09-02T07:39:26;18.70;97.60
13436;DHT22;6790;49.520;8.504;2022-09-02T07:41:52;18.90;97.40
13436;DHT22;6790;49.520;8.504;2022-09-02T07:44:20;19.30;95.40
13436;DHT22;6790;49.520;8.504;2022-09-02T07:46:46;19.40;96.50
13436;DHT22;6790;49.520;8.504;2022-09-02T07:49:13;19.50;93.70
13436;DHT22;6790;49.520;8.504;2022-09-02T07:51:43;19.50;93.80
13436;DHT22;6790;49.520;8.504;2022-09-02T07:54:13;19.60;93.60
13436;DHT22;6790;49.520;8.504;2022-09-02T07:56:39;19.80;93.10
13436;DHT22;6790;49.520;8.504;2022-09-02T07:59:05;19.80;93.30
13436;DHT22;6790;49.520;8.504;2022-09-02T08:01:31;20.00;91.50
13436;DHT22;6790;49.520;8.504;2022-09-02T08:03:56;20.20;91.50
13436;DHT22;6790;49.520;8.504;2022-09-02T08:06:22;20.40;90.90
13436;DHT22;6790;49.520;8.504;2022-09-02T08:08:52;20.50;91.40
13436;DHT22;6790;49.520;8.504;2022-09-02T08:11:19;20.80;92.00
13436;DHT22;6790;49.520;8.504;2022-09-02T08:13:45;20.50;90.20
13436;DHT22;6790;49.520;8.504;2022-09-02T08:16:11;20.70;90.20
13436;DHT22;6790;49.520;8.504;2022-09-02T08:18:37;20.60;86.20
13436;DHT22;6790;49.520;8.504;2022-09-02T08:21:03;20.80;90.30
13436;DHT22;6790;49.520;8.504;2022-09-02T08:23:28;21.10;87.80
13436;DHT22;6790;49.520;8.504;2022-09-02T08:25:54;21.40;87.80
13436;DHT22;6790;49.520;8.504;2022-09-02T08:28:23;21.50;87.30
13436;DHT22;6790;49.520;8.504;2022-09-02T08:30:49;21.60;87.00
13436;DHT22;6790;49.520;8.504;2022-09-02T08:33:15;21.90;81.50
13436;DHT22;6790;49.520;8.504;2022-09-02T08:35:41;22.00;84.20
13436;DHT22;6790;49.520;8.504;2022-09-02T08:38:06;21.90;77.60
13436;DHT22;6790;49.520;8.504;2022-09-02T08:40:37;21.70;75.90
13436;DHT22;6790;49.520;8.504;2022-09-02T08:43:35;21.70;77.40
13436;DHT22;6790;49.520;8.504;2022-09-02T08:46:06;21.90;79.20
13436;DHT22;6790;49.520;8.504;2022-09-02T08:48:48;22.20;77.20
13436;DHT22;6790;49.520;8.504;2022-09-02T08:51:30;22.20;76.10
13436;DHT22;6790;49.520;8.504;2022-09-02T08:54:50;22.30;71.40
13436;DHT22;6790;49.520;8.504;2022-09-02T08:56:57;22.40;68.70
13436;DHT22;6790;49.520;8.504;2022-09-02T08:59:26;22.40;72.30
13436;DHT22;6790;49.520;8.504;2022-09-02T09:14:17;22.70;73.60
13436;DHT22;6790;49.520;8.504;2022-09-02T09:16:48;22.70;68.20
13436;DHT22;6790;49.520;8.504;2022-09-02T09:19:49;23.00;69.20
13436;DHT22;6790;49.520;8.504;2022-09-02T09:22:21;23.10;68.20
13436;DHT22;6790;49.520;8.504;2022-09-02T09:24:50;23.30;67.70
13436;DHT22;6790;49.520;8.504;2022-09-02T09:27:21;23.30;63.80
13436;DHT22;6790;49.520;8.504;2022-09-02T09:29:50;23.30;51.90
13436;DHT22;6790;49.520;8.504;2022-09-02T09:37:38;23.30;52.60
13436;DHT22;6790;49.520;8.504;2022-09-02T09:42:49;23.50;52.40
13436;DHT22;6790;49.520;8.504;2022-09-02T09:53:29;24.00;53.50
13436;DHT22;6790;49.520;8.504;2022-09-02T09:55:58;23.80;44.00
13436;DHT22;6790;49.520;8.504;2022-09-02T09:58:49;23.70;49.70
13436;DHT22;6790;49.520;8.504;2022-09-02T10:01:32;23.50;47.40
13436;DHT22;6790;49.520;8.504;2022-09-02T10:09:05;23.60;49.10
13436;DHT22;6790;49.520;8.504;2022-09-02T10:14:34;23.80;44.70
13436;DHT22;6790;49.520;8.504;2022-09-02T10:20:21;23.50;44.90
13436;DHT22;6790;49.520;8.504;2022-09-02T10:31:42;23.60;48.50
13436;DHT22;6790;49.520;8.504;2022-09-02T10:37:10;24.00;45.60
13436;DHT22;6790;49.520;8.504;2022-09-02T10:58:54;24.60;40.20
13436;DHT22;6790;49.520;8.504;2022-09-02T11:01:44;24.70;36.60
13436;DHT22;6790;49.520;8.504;2022-09-02T11:04:20;24.00;38.60
13436;DHT22;6790;49.520;8.504;2022-09-02T11:06:55;23.80;39.20
13436;DHT22;6790;49.520;8.504;2022-09-02T11:14:39;24.10;41.10
13436;DHT22;6790;49.520;8.504;2022-09-02T11:17:29;24.20;36.90
13436;DHT22;6790;49.520;8.504;2022-09-02T11:23:59;24.90;38.80
13436;DHT22;6790;49.520;8.504;2022-09-02T11:30:19;25.10;34.50
13436;DHT22;6790;49.520;8.504;2022-09-02T11:35:22;25.00;35.30
13436;DHT22;6790;49.520;8.504;2022-09-02T11:38:01;25.10;36.40
13436;DHT22;6790;49.520;8.504;2022-09-02T11:43:47;24.80;36.00
13436;DHT22;6790;49.520;8.504;2022-09-02T11:46:37;25.10;35.70
13436;DHT22;6790;49.520;8.504;2022-09-02T11:55:31;24.70;33.70
13436;DHT22;6790;49.520;8.504;2022-09-02T11:57:59;24.50;35.10
13436;DHT22;6790;49.520;8.504;2022-09-02T12:00:57;24.60;33.90
13436;DHT22;6790;49.520;8.504;2022-09-02T12:03:26;24.70;34.30
13436;DHT22;6790;49.520;8.504;2022-09-02T12:06:10;25.00;35.30
13436;DHT22;6790;49.520;8.504;2022-09-02T12:11:08;25.20;34.10
13436;DHT22;6790;49.520;8.504;2022-09-02T12:13:41;25.00;34.70
13436;DHT22;6790;49.520;8.504;2022-09-02T12:18:44;25.30;35.40
13436;DHT22;6790;49.520;8.504;2022-09-02T12:21:19;25.10;33.20
13436;DHT22;6790;49.520;8.504;2022-09-02T12:31:52;25.60;34.60
13436;DHT22;6790;49.520;8.504;2022-09-02T12:36:59;25.40;35.60
13436;DHT22;6790;49.520;8.504;2022-09-02T12:45:00;25.40;32.70
13436;DHT22;6790;49.520;8.504;2022-09-02T12:47:28;25.40;33.80
13436;DHT22;6790;49.520;8.504;2022-09-02T12:51:09;25.40;34.50
13436;DHT22;6790;49.520;8.504;2022-09-02T12:58:44;25.30;36.50
13436;DHT22;6790;49.520;8.504;2022-09-02T13:01:40;25.20;33.60
13436;DHT22;6790;49.520;8.504;2022-09-02T13:07:29;25.30;30.90
13436;DHT22;6790;49.520;8.504;2022-09-02T13:10:18;25.20;32.60
13436;DHT22;6790;49.520;8.504;2022-09-02T13:13:29;25.50;33.70
13436;DHT22;6790;49.520;8.504;2022-09-02T13:30:40;25.40;32.80
13436;DHT22;6790;49.520;8.504;2022-09-02T13:33:20;25.30;31.50
13436;DHT22;6790;49.520;8.504;2022-09-02T13:35:45;25.50;31.20
13436;DHT22;6790;49.520;8.504;2022-09-02T13:38:22;25.50;31.50
13436;DHT22;6790;49.520;8.504;2022-09-02T13:40:49;25.40;29.50
13436;DHT22;6790;49.520;8.504;2022-09-02T13:43:18;25.50;31.80
13436;DHT22;6790;49.520;8.504;2022-09-02T13:45:50;25.40;29.80
13436;DHT22;6790;49.520;8.504;2022-09-02T13:48:27;25.20;30.60
13436;DHT22;6790;49.520;8.504;2022-09-02T13:50:57;25.10;30.60
13436;DHT22;6790;49.520;8.504;2022-09-02T13:53:34;25.20;32.00
13436;DHT22;6790;49.520;8.504;2022-09-02T13:56:05;25.50;31.70
13436;DHT22;6790;49.520;8.504;2022-09-02T13:58:45;25.50;31.20
13436;DHT22;6790;49.520;8.504;2022-09-02T14:03:55;25.30;30.60
13436;DHT22;6790;49.520;8.504;2022-09-02T14:06:27;25.30;30.00
13436;DHT22;6790;49.520;8.504;2022-09-02T14:08:57;25.20;29.90
13436;DHT22;6790;49.520;8.504;2022-09-02T14:11:26;25.30;29.70
13436;DHT22;6790;49.520;8.504;2022-09-02T14:13:54;25.40;29.70
13436;DHT22;6790;49.520;8.504;2022-09-02T14:16:31;25.60;29.30
13436;DHT22;6790;49.520;8.504;2022-09-02T14:21:36;25.10;30.30
13436;DHT22;6790;49.520;8.504;2022-09-02T14:24:12;24.90;31.50
13436;DHT22;6790;49.520;8.504;2022-09-02T14:26:44;24.70;28.90
13436;DHT22;6790;49.520;8.504;2022-09-02T14:29:13;24.80;36.90
13436;DHT22;6790;49.520;8.504;2022-09-02T14:31:41;24.80;30.50
13436;DHT22;6790;49.520;8.504;2022-09-02T14:34:31;24.90;30.20
13436;DHT22;6790;49.520;8.504;2022-09-02T14:37:24;24.80;30.00
13436;DHT22;6790;49.520;8.504;2022-09-02T14:40:06;25.00;29.60
13436;DHT22;6790;49.520;8.504;2022-09-02T14:42:43;24.90;45.00
13436;DHT22;6790;49.520;8.504;2022-09-02T14:45:11;25.10;30.10
13436;DHT22;6790;49.520;8.504;2022-09-02T14:47:38;25.10;29.10
13436;DHT22;6790;49.520;8.504;2022-09-02T14:50:10;24.40;61.10
13436;DHT22;6790;49.520;8.504;2022-09-02T14:52:44;24.10;52.10
13436;DHT22;6790;49.520;8.504;2022-09-02T14:58:14;24.80;29.80
13436;DHT22;6790;49.520;8.504;2022-09-02T15:00:43;24.80;32.00
13436;DHT22;6790;49.520;8.504;2022-09-02T15:03:14;24.90;34.50
13436;DHT22;6790;49.520;8.504;2022-09-02T15:05:40;24.80;31.40
13436;DHT22;6790;49.520;8.504;2022-09-02T15:08:06;24.80;30.30
13436;DHT22;6790;49.520;8.504;2022-09-02T15:10:33;24.90;29.70
13436;DHT22;6790;49.520;8.504;2022-09-02T15:13:00;24.90;28.80
13436;DHT22;6790;49.520;8.504;2022-09-02T15:15:25;24.70;29.10
13436;DHT22;6790;49.520;8.504;2022-09-02T15:17:52;24.80;30.50
13436;DHT22;6790;49.520;8.504;2022-09-02T15:20:18;24.70;31.70
13436;DHT22;6790;49.520;8.504;2022-09-02T15:22:46;24.40;41.30
13436;DHT22;6790;49.520;8.504;2022-09-02T15:25:11;24.50;30.00
13436;DHT22;6790;49.520;8.504;2022-09-02T15:27:37;24.90;29.70
13436;DHT22;6790;49.520;8.504;2022-09-02T15:30:04;25.00;29.10
13436;DHT22;6790;49.520;8.504;2022-09-02T15:32:31;24.80;29.90
13436;DHT22;6790;49.520;8.504;2022-09-02T15:34:57;24.80;28.80
13436;DHT22;6790;49.520;8.504;2022-09-02T15:37:24;24.70;35.10
13436;DHT22;6790;49.520;8.504;2022-09-02T15:39:50;24.70;30.90
13436;DHT22;6790;49.520;8.504;2022-09-02T15:42:16;24.70;30.60
13436;DHT22;6790;49.520;8.504;2022-09-02T15:44:42;24.50;33.60
13436;DHT22;6790;49.520;8.504;2022-09-02T15:47:08;24.60;32.90
13436;DHT22;6790;49.520;8.504;2022-09-02T15:49:34;24.60;31.90
13436;DHT22;6790;49.520;8.504;2022-09-02T15:52:00;24.40;43.80
13436;DHT22;6790;49.520;8.504;2022-09-02T15:54:27;24.10;36.40
13436;DHT22;6790;49.520;8.504;2022-09-02T15:56:55;24.30;37.90
13436;DHT22;6790;49.520;8.504;2022-09-02T15:59:23;24.40;30.50
13436;DHT22;6790;49.520;8.504;2022-09-02T16:01:51;24.50;30.00
13436;DHT22;6790;49.520;8.504;2022-09-02T16:04:20;24.30;39.30
13436;DHT22;6790;49.520;8.504;2022-09-02T16:06:47;24.20;33.00
13436;DHT22;6790;49.520;8.504;2022-09-02T16:09:15;24.10;37.60
13436;DHT22;6790;49.520;8.504;2022-09-02T16:11:44;24.10;32.50
13436;DHT22;6790;49.520;8.504;2022-09-02T16:14:11;24.30;31.50
13436;DHT22;6790;49.520;8.504;2022-09-02T16:16:37;24.20;32.60
13436;DHT22;6790;49.520;8.504;2022-09-02T16:19:05;24.30;32.60
13436;DHT22;6790;49.520;8.504;2022-09-02T16:21:31;24.10;31.30
13436;DHT22;6790;49.520;8.504;2022-09-02T16:23:57;24.20;32.00
13436;DHT22;6790;49.520;8.504;2022-09-02T16:26:24;24.10;32.90
13436;DHT22;6790;49.520;8.504;2022-09-02T16:28:58;24.10;30.80
13436;DHT22;6790;49.520;8.504;2022-09-02T16:31:30;24.20;29.80
13436;DHT22;6790;49.520;8.504;2022-09-02T16:34:00;24.00;32.60
13436;DHT22;6790;49.520;8.504;2022-09-02T16:36:30;23.90;34.50
13436;DHT22;6790;49.520;8.504;2022-09-02T16:38:56;24.10;31.40
13436;DHT22;6790;49.520;8.504;2022-09-02T16:41:35;24.10;34.10
13436;DHT22;6790;49.520;8.504;2022-09-02T16:44:07;24.20;30.40
13436;DHT22;6790;49.520;8.504;2022-09-02T16:46:36;24.10;31.50
13436;DHT22;6790;49.520;8.504;2022-09-02T16:49:05;24.10;31.20
13436;DHT22;6790;49.520;8.504;2022-09-02T16:51:31;24.10;31.80
13436;DHT22;6790;49.520;8.504;2022-09-02T16:54:00;23.90;31.90
13436;DHT22;6790;49.520;8.504;2022-09-02T16:56:27;23.70;34.50
13436;DHT22;6790;49.520;8.504;2022-09-02T16:58:54;23.70;31.20
13436;DHT22;6790;49.520;8.504;2022-09-02T17:01:21;23.50;34.10
13436;DHT22;6790;49.520;8.504;2022-09-02T17:03:48;23.50;32.30
13436;DHT22;6790;49.520;8.504;2022-09-02T17:06:14;23.50;33.50
13436;DHT22;6790;49.520;8.504;2022-09-02T17:08:40;23.40;32.90
13436;DHT22;6790;49.520;8.504;2022-09-02T17:13:43;23.30;35.90
13436;DHT22;6790;49.520;8.504;2022-09-02T17:16:10;23.10;39.60
13436;DHT22;6790;49.520;8.504;2022-09-02T17:18:36;23.10;38.80
13436;DHT22;6790;49.520;8.504;2022-09-02T17:21:16;22.90;36.90
13436;DHT22;6790;49.520;8.504;2022-09-02T17:23:45;22.90;36.40
13436;DHT22;6790;49.520;8.504;2022-09-02T17:26:11;22.80;38.90
13436;DHT22;6790;49.520;8.504;2022-09-02T17:28:37;22.80;35.10
13436;DHT22;6790;49.520;8.504;2022-09-02T17:31:30;22.90;35.40
13436;DHT22;6790;49.520;8.504;2022-09-02T17:34:01;22.80;36.90
13436;DHT22;6790;49.520;8.504;2022-09-02T17:36:30;22.70;38.40
13436;DHT22;6790;49.520;8.504;2022-09-02T17:39:05;22.70;35.40
13436;DHT22;6790;49.520;8.504;2022-09-02T17:41:32;22.60;40.60
13436;DHT22;6790;49.520;8.504;2022-09-02T17:44:17;22.50;37.40
13436;DHT22;6790;49.520;8.504;2022-09-02T17:46:43;22.50;38.20
13436;DHT22;6790;49.520;8.504;2022-09-02T17:49:10;22.50;37.90
13436;DHT22;6790;49.520;8.504;2022-09-02T17:51:37;22.40;37.00
13436;DHT22;6790;49.520;8.504;2022-09-02T17:54:04;22.40;36.60
13436;DHT22;6790;49.520;8.504;2022-09-02T18:00:17;22.20;40.80
13436;DHT22;6790;49.520;8.504;2022-09-02T18:05:36;21.80;45.00
13436;DHT22;6790;49.520;8.504;2022-09-02T18:08:23;21.90;40.00
13436;DHT22;6790;49.520;8.504;2022-09-02T18:10:58;21.90;40.30
13436;DHT22;6790;49.520;8.504;2022-09-02T18:13:42;21.70;42.90
13436;DHT22;6790;49.520;8.504;2022-09-02T18:47:49;19.90;63.10
13436;DHT22;6790;49.520;8.504;2022-09-02T18:50:30;19.80;62.70
13436;DHT22;6790;49.520;8.504;2022-09-02T18:52:58;19.70;71.20
13436;DHT22;6790;49.520;8.504;2022-09-02T18:55:36;19.60;73.20
13436;DHT22;6790;49.520;8.504;2022-09-02T19:01:26;19.40;68.60
13436;DHT22;6790;49.520;8.504;2022-09-02T19:03:54;19.20;69.50
13436;DHT22;6790;49.520;8.504;2022-09-02T19:06:27;19.10;71.10
13436;DHT22;6790;49.520;8.504;2022-09-02T19:09:02;19.00;72.50
13436;DHT22;6790;49.520;8.504;2022-09-02T19:11:35;18.90;72.80
13436;DHT22;6790;49.520;8.504;2022-09-02T19:14:24;18.70;73.40
13436;DHT22;6790;49.520;8.504;2022-09-02T19:16:53;18.70;75.40
13436;DHT22;6790;49.520;8.504;2022-09-02T19:19:21;18.60;75.90
13436;DHT22;6790;49.520;8.504;2022-09-02T19:21:55;18.50;75.90